createdAt,value
2022-10-26T00:00:34.860Z,12.60
2022-10-26T00:03:02.823Z,12.60
2022-10-26T00:05:34.422Z,12.60
2022-10-26T00:08:02.696Z,12.60
2022-10-26T00:10:31.764Z,12.50
2022-10-26T00:12:59.979Z,12.60
2022-10-26T00:15:27.935Z,12.50
2022-10-26T00:17:56.049Z,12.50
2022-10-26T00:20:24.093Z,12.40
2022-10-26T00:22:53.391Z,12.40
2022-10-26T00:25:21.352Z,12.40
2022-10-26T00:27:49.617Z,12.40
2022-10-26T00:30:17.857Z,12.40
2022-10-26T00:32:45.786Z,12.40
2022-10-26T00:35:23.158Z,12.40
2022-10-26T00:37:57.455Z,12.30
2022-10-26T00:40:29.346Z,12.30
2022-10-26T00:42:57.309Z,12.30
2022-10-26T00:45:27.425Z,12.30
2022-10-26T00:47:59.485Z,12.30
2022-10-26T00:50:31.034Z,12.30
2022-10-26T00:53:01.279Z,12.30
2022-10-26T00:55:33.723Z,12.20
2022-10-26T00:58:03.892Z,12.20
2022-10-26T01:00:31.896Z,12.20
2022-10-26T01:03:03.344Z,12.20
2022-10-26T01:05:32.739Z,12.10
2022-10-26T01:08:02.938Z,12.10
2022-10-26T01:10:31.587Z,12.10
2022-10-26T01:13:00.448Z,12.10
2022-10-26T01:15:39.894Z,12.10
2022-10-26T01:18:14.073Z,12.10
2022-10-26T01:21:14.640Z,12.10
2022-10-26T01:24:00.222Z,12.10
2022-10-26T01:29:53.210Z,12.00
2022-10-26T01:32:28.337Z,12.00
2022-10-26T01:35:06.151Z,11.90
2022-10-26T01:37:38.397Z,11.90
2022-10-26T01:40:13.031Z,11.80
2022-10-26T01:42:47.338Z,11.80
2022-10-26T01:45:17.328Z,11.70
2022-10-26T01:47:48.861Z,11.70
2022-10-26T01:50:19.232Z,11.70
2022-10-26T01:52:50.597Z,11.70
2022-10-26T01:55:41.787Z,11.60
2022-10-26T01:58:22.497Z,11.70
2022-10-26T02:01:00.094Z,11.60
2022-10-26T02:03:35.049Z,11.60
2022-10-26T02:06:11.081Z,11.50
2022-10-26T02:08:54.301Z,11.50
2022-10-26T02:11:32.339Z,11.60
2022-10-26T02:14:09.813Z,11.70
2022-10-26T02:16:44.894Z,11.70
2022-10-26T02:19:26.599Z,11.90
2022-10-26T02:21:59.091Z,11.90
2022-10-26T02:24:28.854Z,11.90
2022-10-26T02:26:58.037Z,11.90
2022-10-26T02:29:27.637Z,11.90
2022-10-26T02:31:56.913Z,11.80
2022-10-26T02:34:29.322Z,11.70
2022-10-26T02:37:00.843Z,11.60
2022-10-26T02:39:33.326Z,11.50
2022-10-26T02:42:04.363Z,11.40
2022-10-26T02:44:35.953Z,11.40
2022-10-26T02:47:04.409Z,11.30
2022-10-26T02:49:33.782Z,11.40
2022-10-26T02:52:07.341Z,11.50
2022-10-26T02:54:43.185Z,11.50
2022-10-26T02:57:16.100Z,11.50
2022-10-26T02:59:47.668Z,11.50
2022-10-26T03:02:17.592Z,11.70
2022-10-26T03:04:46.916Z,11.60
2022-10-26T03:07:14.865Z,11.60
2022-10-26T03:09:42.806Z,11.70
2022-10-26T03:12:10.738Z,11.80
2022-10-26T03:14:38.697Z,11.70
2022-10-26T03:17:06.642Z,11.80
2022-10-26T03:19:34.806Z,11.90
2022-10-26T03:22:04.096Z,11.90
2022-10-26T03:24:32.027Z,12.10
2022-10-26T03:27:02.176Z,12.10
2022-10-26T03:29:30.628Z,12.10
2022-10-26T03:31:58.577Z,11.90
2022-10-26T03:34:26.504Z,11.90
2022-10-26T03:36:54.410Z,11.80
2022-10-26T03:39:23.863Z,11.80
2022-10-26T03:41:51.915Z,11.80
2022-10-26T03:44:19.859Z,11.80
2022-10-26T03:46:47.816Z,11.80
2022-10-26T03:49:15.768Z,11.80
2022-10-26T03:51:43.762Z,11.70
2022-10-26T03:54:11.697Z,11.60
2022-10-26T03:56:41.079Z,11.60
2022-10-26T03:59:08.986Z,11.60
2022-10-26T04:01:36.941Z,11.60
2022-10-26T04:04:05.052Z,11.60
2022-10-26T04:06:33.130Z,11.60
2022-10-26T04:09:02.543Z,11.60
2022-10-26T04:11:30.808Z,11.60
2022-10-26T04:14:00.699Z,11.50
2022-10-26T04:16:31.166Z,11.60
2022-10-26T04:19:01.899Z,11.60
2022-10-26T04:21:29.875Z,11.60
2022-10-26T04:23:57.782Z,11.60
2022-10-26T04:26:26.109Z,11.50
2022-10-26T04:28:54.087Z,11.70
2022-10-26T04:31:23.430Z,11.60
2022-10-26T04:33:51.398Z,11.60
2022-10-26T04:36:19.367Z,11.60
2022-10-26T04:38:49.171Z,11.70
2022-10-26T04:41:17.354Z,11.60
2022-10-26T04:43:45.286Z,11.60
2022-10-26T04:46:16.713Z,11.50
2022-10-26T04:48:46.296Z,11.50
2022-10-26T04:51:14.219Z,11.40
2022-10-26T04:53:42.154Z,11.40
2022-10-26T04:56:10.267Z,11.40
2022-10-26T04:58:38.247Z,11.40
2022-10-26T05:01:06.380Z,11.40
2022-10-26T05:03:34.470Z,11.40
2022-10-26T05:06:03.758Z,11.40
2022-10-26T05:08:31.728Z,11.40
2022-10-26T05:10:59.672Z,11.40
2022-10-26T05:16:00.511Z,11.30
2022-10-26T05:18:28.506Z,11.20
2022-10-26T05:20:56.909Z,11.30
2022-10-26T05:23:26.273Z,11.30
2022-10-26T05:25:56.095Z,11.30
2022-10-26T05:28:24.073Z,11.20
2022-10-26T05:30:52.159Z,11.10
2022-10-26T05:33:20.165Z,11.10
2022-10-26T05:35:49.250Z,11.20
2022-10-26T05:38:19.764Z,11.20
2022-10-26T05:40:53.461Z,11.10
2022-10-26T05:43:22.645Z,11.20
2022-10-26T05:45:51.879Z,11.10
2022-10-26T05:48:19.839Z,11.40
2022-10-26T05:50:47.903Z,11.20
2022-10-26T05:53:18.893Z,11.20
2022-10-26T05:55:47.770Z,11.20
2022-10-26T05:58:17.764Z,11.10
2022-10-26T06:00:58.734Z,11.10
2022-10-26T06:03:41.226Z,11.20
2022-10-26T06:06:12.727Z,11.20
2022-10-26T06:08:42.985Z,11.20
2022-10-26T06:11:11.978Z,11.20
2022-10-26T06:13:42.611Z,11.20
2022-10-26T06:16:27.309Z,11.30
2022-10-26T06:19:04.102Z,11.30
2022-10-26T06:21:47.126Z,11.30
2022-10-26T06:24:21.382Z,11.50
2022-10-26T06:26:59.067Z,11.50
2022-10-26T06:29:39.705Z,11.50
2022-10-26T06:32:09.327Z,11.50
2022-10-26T06:34:40.647Z,11.60
2022-10-26T06:37:09.320Z,11.60
2022-10-26T06:39:40.889Z,11.50
2022-10-26T06:42:11.356Z,11.60
2022-10-26T06:44:41.528Z,11.60
2022-10-26T06:47:18.659Z,11.70
2022-10-26T06:49:59.609Z,11.70
2022-10-26T06:52:34.808Z,11.80
2022-10-26T06:55:03.316Z,11.80
2022-10-26T06:57:35.592Z,11.70
2022-10-26T07:00:08.558Z,11.80
2022-10-26T07:02:46.324Z,11.80
2022-10-26T07:05:15.219Z,11.80
2022-10-26T07:07:44.551Z,11.90
2022-10-26T07:10:13.198Z,11.90
2022-10-26T07:12:41.935Z,12.00
2022-10-26T07:15:12.367Z,11.90
2022-10-26T07:17:48.507Z,12.00
2022-10-26T07:20:17.750Z,12.00
2022-10-26T07:22:45.716Z,12.10
2022-10-26T07:25:14.342Z,12.10
2022-10-26T07:27:42.298Z,12.20
2022-10-26T07:30:12.768Z,12.30
2022-10-26T07:32:40.799Z,12.40
2022-10-26T07:35:09.577Z,12.50
2022-10-26T07:37:37.623Z,12.60
2022-10-26T07:40:07.528Z,12.60
2022-10-26T07:42:37.172Z,12.70
2022-10-26T07:45:06.487Z,12.80
2022-10-26T07:47:35.980Z,12.90
2022-10-26T07:50:05.105Z,12.90
2022-10-26T07:52:34.893Z,13.00
2022-10-26T07:55:02.851Z,13.10
2022-10-26T07:57:30.773Z,13.10
2022-10-26T07:59:58.902Z,13.20
2022-10-26T08:02:26.922Z,13.20
2022-10-26T08:04:56.215Z,13.30
2022-10-26T08:07:25.930Z,13.40
2022-10-26T08:09:54.039Z,13.50
2022-10-26T08:12:22.365Z,13.50
2022-10-26T08:14:50.300Z,13.50
2022-10-26T08:17:18.422Z,13.60
2022-10-26T08:19:48.981Z,13.60
2022-10-26T08:22:18.773Z,13.70
2022-10-26T08:24:46.951Z,13.80
2022-10-26T08:27:15.569Z,13.80
2022-10-26T08:29:43.915Z,13.90
2022-10-26T08:32:11.925Z,14.00
2022-10-26T08:34:39.882Z,14.00
2022-10-26T08:37:07.869Z,14.10
2022-10-26T08:39:37.195Z,14.20
2022-10-26T08:42:13.201Z,14.20
2022-10-26T08:44:46.950Z,14.30
2022-10-26T08:47:19.961Z,14.30
2022-10-26T08:49:53.623Z,14.30
2022-10-26T08:52:34.085Z,14.40
2022-10-26T08:55:05.270Z,14.40
2022-10-26T08:57:38.889Z,14.50
2022-10-26T09:00:11.984Z,14.50
2022-10-26T09:02:40.106Z,14.60
2022-10-26T09:05:16.368Z,14.70
2022-10-26T09:07:53.710Z,14.70
2022-10-26T09:10:40.273Z,14.70
2022-10-26T09:13:17.697Z,14.80
2022-10-26T09:15:55.937Z,14.90
2022-10-26T09:18:36.163Z,15.00
2022-10-26T09:21:19.070Z,15.10
2022-10-26T09:24:00.572Z,15.10
2022-10-26T09:26:39.108Z,15.10
2022-10-26T09:29:12.047Z,15.20
2022-10-26T09:31:43.551Z,15.30
2022-10-26T09:34:21.501Z,15.40
2022-10-26T09:36:55.205Z,15.50
2022-10-26T09:39:31.649Z,15.60
2022-10-26T09:42:09.208Z,15.60
2022-10-26T09:44:41.681Z,15.60
2022-10-26T09:47:17.164Z,15.70
2022-10-26T09:49:48.951Z,15.70
2022-10-26T09:52:17.542Z,15.80
2022-10-26T09:54:45.920Z,15.90
2022-10-26T09:57:17.266Z,15.90
2022-10-26T09:59:47.821Z,15.90
2022-10-26T10:02:34.758Z,16.00
2022-10-26T10:05:03.653Z,16.10
2022-10-26T10:07:32.993Z,16.20
2022-10-26T10:10:13.120Z,16.20
2022-10-26T10:12:44.053Z,16.50
2022-10-26T10:15:19.918Z,17.00
2022-10-26T10:17:53.243Z,17.20
2022-10-26T10:20:23.663Z,17.40
2022-10-26T10:22:59.502Z,17.60
2022-10-26T10:25:35.724Z,17.70
2022-10-26T10:30:57.281Z,17.30
2022-10-26T10:33:34.997Z,17.30
2022-10-26T10:36:04.994Z,17.20
2022-10-26T10:38:39.799Z,17.10
2022-10-26T10:41:16.847Z,17.20
2022-10-26T10:43:49.417Z,17.20
2022-10-26T10:46:23.335Z,17.30
2022-10-26T10:49:02.990Z,17.50
2022-10-26T10:51:36.823Z,17.80
2022-10-26T10:54:06.479Z,17.80
2022-10-26T10:56:42.423Z,17.90
2022-10-26T10:59:29.598Z,18.10
2022-10-26T11:02:16.202Z,18.10
2022-10-26T11:05:03.395Z,18.10
2022-10-26T11:07:33.820Z,18.20
2022-10-26T11:10:05.028Z,18.30
2022-10-26T11:12:37.517Z,18.20
2022-10-26T11:15:12.850Z,18.10
2022-10-26T11:17:48.772Z,18.00
2022-10-26T11:20:20.219Z,18.00
2022-10-26T11:25:41.479Z,17.90
2022-10-26T11:28:17.688Z,17.80
2022-10-26T11:30:52.101Z,17.80
2022-10-26T11:33:24.527Z,17.80
2022-10-26T11:35:57.640Z,17.80
2022-10-26T11:38:45.465Z,17.90
2022-10-26T11:41:20.164Z,17.90
2022-10-26T11:43:50.464Z,18.00
2022-10-26T11:46:24.968Z,18.00
2022-10-26T11:48:57.992Z,18.00
2022-10-26T11:51:38.957Z,18.00
2022-10-26T11:54:12.974Z,18.00
2022-10-26T11:56:47.011Z,18.10
2022-10-26T11:59:34.524Z,18.20
2022-10-26T12:02:12.035Z,18.20
2022-10-26T12:04:43.157Z,18.30
2022-10-26T12:07:18.384Z,18.40
2022-10-26T12:09:49.306Z,18.50
2022-10-26T12:12:22.988Z,18.70
2022-10-26T12:14:55.661Z,18.80
2022-10-26T12:17:32.315Z,18.90
2022-10-26T12:20:07.975Z,19.00
2022-10-26T12:22:40.068Z,19.00
2022-10-26T12:25:20.070Z,19.10
2022-10-26T12:27:56.273Z,19.20
2022-10-26T12:30:30.537Z,19.10
2022-10-26T12:33:01.517Z,19.20
2022-10-26T12:35:43.827Z,19.10
2022-10-26T12:38:47.620Z,19.10
2022-10-26T12:41:26.682Z,19.00
2022-10-26T12:44:09.005Z,18.80
2022-10-26T12:46:42.047Z,18.70
2022-10-26T12:49:56.229Z,18.60
2022-10-26T12:52:51.052Z,18.60
2022-10-26T12:55:48.639Z,18.60
2022-10-26T12:58:42.616Z,18.60
2022-10-26T13:01:31.398Z,18.50
2022-10-26T13:04:12.588Z,18.40
2022-10-26T13:07:00.181Z,18.30
2022-10-26T13:09:33.129Z,18.30
2022-10-26T13:12:04.550Z,18.30
2022-10-26T13:14:36.877Z,18.20
2022-10-26T13:17:07.159Z,18.30
2022-10-26T13:19:42.846Z,18.40
2022-10-26T13:22:15.787Z,18.40
2022-10-26T13:24:50.228Z,18.30
2022-10-26T13:27:43.525Z,18.40
2022-10-26T13:30:44.279Z,18.50
2022-10-26T13:33:20.850Z,18.40
2022-10-26T13:35:50.105Z,18.40
2022-10-26T13:38:24.129Z,18.30
2022-10-26T13:40:57.669Z,18.20
2022-10-26T13:43:28.516Z,18.20
2022-10-26T13:45:57.944Z,18.20
2022-10-26T13:48:34.698Z,18.10
2022-10-26T13:51:07.428Z,18.00
2022-10-26T13:53:41.521Z,18.00
2022-10-26T13:56:19.258Z,18.00
2022-10-26T13:58:51.609Z,17.90
2022-10-26T14:01:23.106Z,17.90
2022-10-26T14:03:52.030Z,17.90
2022-10-26T14:06:27.395Z,17.80
2022-10-26T14:08:59.085Z,17.80
2022-10-26T14:11:33.695Z,17.80
2022-10-26T14:14:04.005Z,17.80
2022-10-26T14:16:34.525Z,17.70
2022-10-26T14:19:03.081Z,17.70
2022-10-26T14:21:31.399Z,17.70
2022-10-26T14:24:04.202Z,17.50
2022-10-26T14:26:39.826Z,17.50
2022-10-26T14:29:18.397Z,17.40
2022-10-26T14:31:46.627Z,17.40
2022-10-26T14:34:14.687Z,17.30
2022-10-26T14:36:47.251Z,17.30
2022-10-26T14:39:21.804Z,17.30
2022-10-26T14:41:51.221Z,17.30
2022-10-26T14:44:25.008Z,17.20
2022-10-26T14:46:54.521Z,17.20
2022-10-26T14:49:25.137Z,17.20
2022-10-26T14:51:58.482Z,17.10
2022-10-26T14:54:28.626Z,17.00
2022-10-26T14:56:57.135Z,17.00
2022-10-26T14:59:29.062Z,17.00
2022-10-26T15:01:58.086Z,17.00
2022-10-26T15:04:33.842Z,16.90
2022-10-26T15:07:17.772Z,16.90
2022-10-26T15:09:47.330Z,16.80
2022-10-26T15:12:29.707Z,16.80
2022-10-26T15:15:12.153Z,16.70
2022-10-26T15:17:43.098Z,16.60
2022-10-26T15:20:19.160Z,16.50
2022-10-26T15:22:51.657Z,16.50
2022-10-26T15:25:23.145Z,16.40
2022-10-26T15:27:52.248Z,16.40
2022-10-26T15:30:24.602Z,16.30
2022-10-26T15:32:53.852Z,16.30
2022-10-26T15:35:32.790Z,16.10
2022-10-26T15:38:01.784Z,16.20
2022-10-26T15:40:32.195Z,16.10
2022-10-26T15:43:02.015Z,16.00
2022-10-26T15:45:34.925Z,16.00
2022-10-26T15:48:19.401Z,16.00
2022-10-26T15:50:48.051Z,15.90
2022-10-26T15:53:21.078Z,15.90
2022-10-26T15:55:49.540Z,15.80
2022-10-26T15:58:17.910Z,15.80
2022-10-26T16:00:47.580Z,15.80
2022-10-26T16:03:20.050Z,15.80
2022-10-26T16:05:48.365Z,15.70
2022-10-26T16:08:18.624Z,15.70
2022-10-26T16:10:48.270Z,15.60
2022-10-26T16:13:16.907Z,15.60
2022-10-26T16:15:45.313Z,15.60
2022-10-26T16:18:14.585Z,15.50
2022-10-26T16:20:45.703Z,15.50
2022-10-26T16:23:13.679Z,15.40
2022-10-26T16:25:44.429Z,15.40
2022-10-26T16:28:13.483Z,15.40
2022-10-26T16:33:16.099Z,15.30
2022-10-26T16:35:44.073Z,15.20
2022-10-26T16:38:11.982Z,15.20
2022-10-26T16:40:42.682Z,15.20
2022-10-26T16:43:10.718Z,15.20
2022-10-26T16:45:41.697Z,15.10
2022-10-26T16:48:14.487Z,15.00
2022-10-26T16:50:43.958Z,15.00
2022-10-26T16:53:11.981Z,15.00
2022-10-26T16:55:39.975Z,14.90
2022-10-26T16:58:08.292Z,14.90
2022-10-26T17:00:36.862Z,14.80
2022-10-26T17:03:05.410Z,14.80
2022-10-26T17:05:33.503Z,14.70
2022-10-26T17:08:02.824Z,14.70
2022-10-26T17:10:30.749Z,14.70
2022-10-26T17:12:58.685Z,14.70
2022-10-26T17:15:29.059Z,14.60
2022-10-26T17:17:57.207Z,14.70
2022-10-26T17:20:25.197Z,14.50
2022-10-26T17:22:53.222Z,14.40
2022-10-26T17:25:22.615Z,14.40
2022-10-26T17:27:50.551Z,14.40
2022-10-26T17:30:18.555Z,14.30
2022-10-26T17:32:46.515Z,14.30
2022-10-26T17:35:16.811Z,14.30
2022-10-26T17:37:44.834Z,14.30
2022-10-26T17:40:13.458Z,14.20
2022-10-26T17:42:42.826Z,14.10
2022-10-26T17:45:11.623Z,14.10
2022-10-26T17:47:39.584Z,14.00
2022-10-26T17:50:08.446Z,14.00
2022-10-26T17:52:36.911Z,13.90
2022-10-26T17:55:05.285Z,13.90
2022-10-26T17:57:34.068Z,13.90
2022-10-26T18:00:03.963Z,13.90
2022-10-26T18:02:32.046Z,13.80
2022-10-26T18:05:02.668Z,13.80
2022-10-26T18:07:33.404Z,13.80
2022-10-26T18:10:19.537Z,13.80
2022-10-26T18:12:49.548Z,13.80
2022-10-26T18:15:19.110Z,13.70
2022-10-26T18:17:50.945Z,13.70
2022-10-26T18:20:20.574Z,13.70
2022-10-26T18:22:48.695Z,13.60
2022-10-26T18:25:16.938Z,13.60
2022-10-26T18:27:44.858Z,13.60
2022-10-26T18:30:13.626Z,13.50
2022-10-26T18:32:42.898Z,13.50
2022-10-26T18:35:10.915Z,13.40
2022-10-26T18:37:38.822Z,13.40
2022-10-26T18:40:08.052Z,13.30
2022-10-26T18:42:36.020Z,13.30
2022-10-26T18:45:04.896Z,13.30
2022-10-26T18:47:33.835Z,13.40
2022-10-26T18:50:03.135Z,13.30
2022-10-26T18:52:31.077Z,13.30
2022-10-26T18:54:59.123Z,13.30
2022-10-26T18:57:28.888Z,13.30
2022-10-26T18:59:56.851Z,13.30
2022-10-26T19:02:24.790Z,13.20
2022-10-26T19:04:53.718Z,13.20
2022-10-26T19:07:23.001Z,13.10
2022-10-26T19:09:50.935Z,13.10
2022-10-26T19:12:18.862Z,13.00
2022-10-26T19:14:46.783Z,13.00
2022-10-26T19:17:14.713Z,13.00
2022-10-26T19:19:42.924Z,13.00
2022-10-26T19:22:11.463Z,13.00
2022-10-26T19:24:40.768Z,13.00
2022-10-26T19:27:08.746Z,12.80
2022-10-26T19:29:37.009Z,12.80
2022-10-26T19:32:05.320Z,12.80
2022-10-26T19:34:33.280Z,12.90
2022-10-26T19:37:01.262Z,12.90
2022-10-26T19:39:29.191Z,12.90
2022-10-26T19:41:58.470Z,12.90
2022-10-26T19:44:26.434Z,12.90
2022-10-26T19:46:54.399Z,12.80
2022-10-26T19:49:22.447Z,12.80
2022-10-26T19:51:50.385Z,12.80
2022-10-26T19:54:18.315Z,12.70
2022-10-26T19:56:46.305Z,12.90
2022-10-26T19:59:15.861Z,12.80
2022-10-26T20:01:43.874Z,12.80
2022-10-26T20:04:11.938Z,12.80
2022-10-26T20:06:39.920Z,12.80
2022-10-26T20:09:07.865Z,12.90
2022-10-26T20:11:38.083Z,12.90
2022-10-26T20:14:07.412Z,12.90
2022-10-26T20:16:36.718Z,12.90
2022-10-26T20:19:04.629Z,13.00
2022-10-26T20:21:32.762Z,13.00
2022-10-26T20:24:00.678Z,13.00
2022-10-26T20:26:28.852Z,13.00
2022-10-26T20:28:56.816Z,13.00
2022-10-26T20:31:24.862Z,13.00
2022-10-26T20:33:54.192Z,12.90
2022-10-26T20:36:23.013Z,13.00
2022-10-26T20:38:51.541Z,12.90
2022-10-26T20:41:20.079Z,12.90
2022-10-26T20:43:48.683Z,12.90
2022-10-26T20:46:23.288Z,12.80
2022-10-26T20:48:52.597Z,12.90
2022-10-26T20:51:31.155Z,12.80
2022-10-26T20:54:06.262Z,12.80
2022-10-26T20:56:35.350Z,12.80
2022-10-26T20:59:05.022Z,12.80
2022-10-26T21:01:35.155Z,12.80
2022-10-26T21:04:04.556Z,12.70
2022-10-26T21:06:40.160Z,12.70
2022-10-26T21:09:09.024Z,12.70
2022-10-26T21:11:37.047Z,12.60
2022-10-26T21:14:06.406Z,12.60
2022-10-26T21:16:34.367Z,12.50
2022-10-26T21:19:04.952Z,12.50
2022-10-26T21:21:34.301Z,12.50
2022-10-26T21:24:02.731Z,12.50
2022-10-26T21:26:30.779Z,12.50
2022-10-26T21:28:58.771Z,12.40
2022-10-26T21:31:26.723Z,12.50
2022-10-26T21:33:54.849Z,12.40
2022-10-26T21:36:23.065Z,12.50
2022-10-26T21:38:52.362Z,12.50
2022-10-26T21:41:21.737Z,12.40
2022-10-26T21:43:59.165Z,12.40
2022-10-26T21:46:37.163Z,12.50
2022-10-26T21:49:05.300Z,12.40
2022-10-26T21:51:34.912Z,12.30
2022-10-26T21:54:04.383Z,12.30
2022-10-26T21:56:32.475Z,12.40
2022-10-26T21:59:01.777Z,12.30
2022-10-26T22:01:29.915Z,12.30
2022-10-26T22:03:58.082Z,12.30
2022-10-26T22:06:26.116Z,12.30
2022-10-26T22:08:54.455Z,12.30
2022-10-26T22:11:25.689Z,12.30
2022-10-26T22:13:54.635Z,12.30
2022-10-26T22:16:25.048Z,12.20
2022-10-26T22:18:54.911Z,12.20
2022-10-26T22:21:24.394Z,12.20
2022-10-26T22:23:52.333Z,12.20
2022-10-26T22:26:21.461Z,12.20
2022-10-26T22:28:53.292Z,12.20
2022-10-26T22:31:23.070Z,12.10
2022-10-26T22:33:53.715Z,12.10
2022-10-26T22:36:22.296Z,12.10
2022-10-26T22:38:50.851Z,12.10
2022-10-26T22:41:19.608Z,12.10
2022-10-26T22:43:47.704Z,12.10
2022-10-26T22:46:19.555Z,12.10
2022-10-26T22:48:47.785Z,12.10
2022-10-26T22:51:18.569Z,12.20
2022-10-26T22:53:47.075Z,12.20
2022-10-26T22:56:16.830Z,12.10
2022-10-26T22:58:44.836Z,12.10
2022-10-26T23:01:14.297Z,12.10
2022-10-26T23:03:44.088Z,12.10
2022-10-26T23:06:14.271Z,12.00
2022-10-26T23:08:42.480Z,12.00
2022-10-26T23:11:12.894Z,12.00
2022-10-26T23:13:40.872Z,11.90
2022-10-26T23:16:10.244Z,11.90
2022-10-26T23:18:38.427Z,11.90
2022-10-26T23:21:09.394Z,11.80
2022-10-26T23:23:37.694Z,11.80
2022-10-26T23:26:07.205Z,11.80
2022-10-26T23:28:35.617Z,11.80
2022-10-26T23:31:03.847Z,11.70
2022-10-26T23:33:32.227Z,11.70
2022-10-26T23:36:01.220Z,11.70
2022-10-26T23:38:30.513Z,11.70
2022-10-26T23:41:00.165Z,11.70
2022-10-26T23:43:29.130Z,11.70
2022-10-26T23:45:57.135Z,11.60
2022-10-26T23:48:25.235Z,11.70
2022-10-26T23:50:53.210Z,11.60
2022-10-26T23:53:23.053Z,11.60
2022-10-26T23:55:52.700Z,11.60
2022-10-26T23:58:22.107Z,11.50
